Assateague Island Natl Seashore, Maryland
Current Conditions -  °F | °C
As of 10:53 PM on Saturday 25 Oct 2014 (Local Time) from KOXB Reporting Station
Clear Clear  
Wind Chill: 59°   Ceiling: Unl
Heat Index: 59°   Visibility: 10mi
Dew Point: 48°   Wind: 10mph
Humidity: 67%   Direction: 240°WSW
Pressure: 29.73"   Gusts: NA
Location:  38.12°N, 75.19°W
Report Text: KOXB 260253Z AUTO 24009KT 10SM CLR 15/09 A2973 RMK AO2 SLP067 T01500089 58010 TSNO
Loading
Personal Weather Stations






























Interactive Weather Map New forecast layout! Learn more

10-Day Weather Forecast

Advertisements
Track Severe Weather on mobile